createdAt,value
2022-09-26T00:01:15.236Z,99089.13
2022-09-26T00:05:19.656Z,99079.47
2022-09-26T00:09:24.888Z,99077.78
2022-09-26T00:13:29.931Z,99065.47
2022-09-26T00:17:32.929Z,99063.81
2022-09-26T00:21:38.224Z,99061.38
2022-09-26T00:25:46.475Z,99059.72
2022-09-26T00:29:49.736Z,99064.25
2022-09-26T00:33:53.096Z,99064.47
2022-09-26T00:37:57.516Z,99062.84
2022-09-26T00:42:00.599Z,99054.06
2022-09-26T00:46:07.905Z,99055.91
2022-09-26T00:50:18.053Z,99049.78
2022-09-26T00:54:23.064Z,99051.63
2022-09-26T00:58:29.614Z,99047.28
2022-09-26T01:02:32.786Z,99055.28
2022-09-26T01:06:35.923Z,99045.56
2022-09-26T01:10:40.442Z,99049.09
2022-09-26T01:14:45.344Z,99044.69
2022-09-26T01:18:49.066Z,99041.22
2022-09-26T01:23:15.435Z,99036.94
2022-09-26T01:27:39.978Z,99037.81
2022-09-26T01:32:10.874Z,99034.34
2022-09-26T01:36:49.526Z,99033.53
2022-09-26T01:41:06.109Z,99033.56
2022-09-26T01:45:17.256Z,99022.09
2022-09-26T01:49:28.150Z,99016.81
2022-09-26T01:53:40.066Z,99014.16
2022-09-26T01:57:58.240Z,99008.78
2022-09-26T02:02:06.973Z,99012.31
2022-09-26T02:06:13.853Z,99007.03
2022-09-26T02:10:21.492Z,99003.63
2022-09-26T02:14:31.396Z,98997.47
2022-09-26T02:18:38.704Z,99000.13
2022-09-26T02:22:45.233Z,98993.09
2022-09-26T02:26:52.145Z,98990.47
2022-09-26T02:30:56.551Z,98989.63
2022-09-26T02:35:00.421Z,98976.44
2022-09-26T02:39:07.725Z,98976.53
2022-09-26T02:43:40.539Z,98973.91
2022-09-26T02:48:12.933Z,98973.06
2022-09-26T02:52:36.899Z,98981.09
2022-09-26T02:56:52.936Z,98978.44
2022-09-26T03:01:04.036Z,98975.91
2022-09-26T03:05:12.640Z,98969.78
2022-09-26T03:09:18.911Z,98966.31
2022-09-26T03:13:25.100Z,98975.13
2022-09-26T03:17:29.265Z,98967.16
2022-09-26T03:21:36.997Z,98974.16
2022-09-26T03:25:41.925Z,98970.59
2022-09-26T03:29:50.176Z,98972.25
2022-09-26T03:33:57.488Z,98972.16
2022-09-26T03:38:00.525Z,98973.88
2022-09-26T03:42:06.598Z,98971.16
2022-09-26T03:46:13.583Z,98972.03
2022-09-26T03:50:16.666Z,98961.41
2022-09-26T03:54:19.872Z,98956.13
2022-09-26T03:58:24.336Z,98951.69
2022-09-26T04:02:28.873Z,98951.72
2022-09-26T04:06:47.514Z,98950.03
2022-09-26T04:10:51.031Z,98947.31
2022-09-26T04:14:55.083Z,98944.75
2022-09-26T04:19:00.168Z,98950.91
2022-09-26T04:23:04.065Z,98952.63
2022-09-26T04:27:08.561Z,98949.06
2022-09-26T04:31:12.735Z,98950.81
2022-09-26T04:35:25.499Z,98952.53
2022-09-26T04:39:28.706Z,98944.59
2022-09-26T04:43:32.874Z,98940.22
2022-09-26T04:47:36.884Z,98945.59
2022-09-26T04:52:10.320Z,98950.16
2022-09-26T04:56:15.483Z,98944.03
2022-09-26T05:00:20.183Z,98948.56
2022-09-26T05:04:27.677Z,98950.25
2022-09-26T05:08:33.024Z,98941.50
2022-09-26T05:12:36.131Z,98947.66
2022-09-26T05:16:40.284Z,98939.72
2022-09-26T05:20:48.891Z,98938.78
2022-09-26T05:25:11.402Z,98935.16
2022-09-26T05:29:16.202Z,98940.41
2022-09-26T05:33:28.175Z,98935.91
2022-09-26T05:37:31.331Z,98948.16
2022-09-26T05:41:35.728Z,98940.13
2022-09-26T05:45:38.977Z,98945.34
2022-09-26T05:49:44.358Z,98951.38
2022-09-26T05:53:50.986Z,98947.81
2022-09-26T05:57:59.738Z,98945.06
2022-09-26T06:02:21.257Z,98940.66
2022-09-26T06:06:39.418Z,98939.75
2022-09-26T06:10:47.582Z,98944.16
2022-09-26T06:14:53.998Z,98946.81
2022-09-26T06:18:57.534Z,98948.56
2022-09-26T06:23:01.757Z,98947.59
2022-09-26T06:27:05.201Z,98946.66
2022-09-26T06:31:12.096Z,98953.59
2022-09-26T06:35:44.174Z,98951.69
2022-09-26T06:39:59.359Z,98955.94
2022-09-26T06:44:03.884Z,98954.88
2022-09-26T06:48:25.948Z,98958.38
2022-09-26T06:52:35.219Z,98954.72
2022-09-26T06:56:39.240Z,98956.34
2022-09-26T07:00:42.425Z,98949.25
2022-09-26T07:05:03.460Z,98959.84
2022-09-26T07:09:12.480Z,98962.38
2022-09-26T07:13:35.303Z,98960.50
2022-09-26T07:17:38.520Z,98970.09
2022-09-26T07:21:50.311Z,98974.28
2022-09-26T07:26:02.570Z,98971.34
2022-09-26T07:30:07.979Z,98972.94
2022-09-26T07:34:18.766Z,98974.59
2022-09-26T07:38:23.741Z,98974.47
2022-09-26T07:42:28.992Z,98978.69
2022-09-26T07:46:49.878Z,98971.19
2022-09-26T07:50:57.769Z,98979.56
2022-09-26T07:55:14.681Z,98973.75
2022-09-26T07:59:27.112Z,98963.75
2022-09-26T08:03:50.468Z,98966.31
2022-09-26T08:08:04.878Z,98965.34
2022-09-26T08:12:28.155Z,98971.22
2022-09-26T08:16:43.135Z,98964.66
2022-09-26T08:20:48.314Z,98968.22
2022-09-26T08:24:51.365Z,98972.47
2022-09-26T08:29:05.126Z,98968.59
2022-09-26T08:33:09.403Z,98969.28
2022-09-26T08:37:12.723Z,98957.50
2022-09-26T08:41:52.809Z,98954.66
2022-09-26T08:46:34.859Z,98965.44
2022-09-26T08:51:03.913Z,98961.38
2022-09-26T08:55:13.940Z,98966.25
2022-09-26T08:59:26.763Z,98963.91
2022-09-26T09:03:35.129Z,98967.19
2022-09-26T09:07:41.143Z,98968.00
2022-09-26T09:12:06.253Z,98962.53
2022-09-26T09:16:25.294Z,98965.00
2022-09-26T09:20:48.929Z,98961.06
2022-09-26T09:25:19.334Z,98957.16
2022-09-26T09:29:40.814Z,98948.56
2022-09-26T09:34:06.500Z,98948.53
2022-09-26T09:38:27.786Z,98940.63
2022-09-26T09:42:44.619Z,98936.50
2022-09-26T09:46:51.105Z,98930.81
2022-09-26T09:51:06.698Z,98939.47
2022-09-26T09:55:37.720Z,98927.84
2022-09-26T09:59:57.425Z,98934.63
2022-09-26T10:04:04.760Z,98925.41
2022-09-26T10:08:14.295Z,98932.25
2022-09-26T10:12:39.384Z,98942.03
2022-09-26T10:17:20.372Z,98939.28
2022-09-26T10:21:50.528Z,98931.34
2022-09-26T10:26:00.101Z,98928.75
2022-09-26T10:30:21.537Z,98928.91
2022-09-26T10:34:29.088Z,98930.63
2022-09-26T10:38:32.618Z,98939.72
2022-09-26T10:42:45.102Z,98934.00
2022-09-26T10:46:51.851Z,98931.28
2022-09-26T10:51:42.588Z,98923.59
2022-09-26T10:55:51.280Z,98923.59
2022-09-26T10:59:56.915Z,98924.34
2022-09-26T11:04:14.655Z,98907.81
2022-09-26T11:08:52.727Z,98910.22
2022-09-26T11:13:30.084Z,98900.81
2022-09-26T11:17:45.252Z,98905.50
2022-09-26T11:21:56.680Z,98898.19
2022-09-26T11:26:12.552Z,98905.75
2022-09-26T11:30:20.698Z,98893.44
2022-09-26T11:34:41.008Z,98878.72
2022-09-26T11:38:48.230Z,98877.19
2022-09-26T11:43:08.896Z,98887.88
2022-09-26T11:47:41.365Z,98872.88
2022-09-26T11:52:04.451Z,98865.38
2022-09-26T11:56:39.497Z,98863.06
2022-09-26T12:00:55.975Z,98855.97
2022-09-26T12:05:14.492Z,98848.16
2022-09-26T12:09:54.977Z,98852.53
2022-09-26T12:14:09.289Z,98848.75
2022-09-26T12:18:21.162Z,98849.28
2022-09-26T12:22:29.845Z,98840.00
2022-09-26T12:26:40.281Z,98838.38
2022-09-26T12:30:57.900Z,98833.31
2022-09-26T12:35:30.030Z,98831.78
2022-09-26T12:40:09.536Z,98822.91
2022-09-26T12:44:31.338Z,98823.31
2022-09-26T12:48:51.569Z,98828.47
2022-09-26T12:53:11.265Z,98837.88
2022-09-26T12:57:26.938Z,98824.53
2022-09-26T13:01:47.663Z,98815.97
2022-09-26T13:06:32.143Z,98806.47
2022-09-26T13:11:06.302Z,98793.31
2022-09-26T13:15:23.228Z,98793.41
2022-09-26T13:19:34.616Z,98787.84
2022-09-26T13:23:43.629Z,98786.50
2022-09-26T13:27:54.721Z,98789.78
2022-09-26T13:32:07.628Z,98785.31
2022-09-26T13:36:22.892Z,98782.75
2022-09-26T13:40:38.120Z,98779.44
2022-09-26T13:44:57.615Z,98781.31
2022-09-26T13:49:08.843Z,98782.50
2022-09-26T13:53:21.799Z,98769.53
2022-09-26T13:57:33.360Z,98772.59
2022-09-26T14:01:36.999Z,98769.38
2022-09-26T14:05:51.033Z,98761.75
2022-09-26T14:09:59.049Z,98759.22
2022-09-26T14:14:26.773Z,98761.13
2022-09-26T14:18:44.870Z,98754.94
2022-09-26T14:22:52.737Z,98749.59
2022-09-26T14:27:05.635Z,98744.41
2022-09-26T14:31:22.765Z,98740.25
2022-09-26T14:35:28.351Z,98745.84
2022-09-26T14:39:43.035Z,98736.56
2022-09-26T14:43:47.479Z,98737.81
2022-09-26T14:48:03.898Z,98735.34
2022-09-26T14:52:15.784Z,98730.75
2022-09-26T14:56:32.559Z,98719.19
2022-09-26T15:00:40.463Z,98721.09
2022-09-26T15:04:47.923Z,98721.00
2022-09-26T15:08:51.995Z,98713.94
2022-09-26T15:13:02.166Z,98715.91
2022-09-26T15:17:07.303Z,98712.31
2022-09-26T15:21:20.884Z,98706.00
2022-09-26T15:25:26.628Z,98711.53
2022-09-26T15:29:30.145Z,98703.59
2022-09-26T15:33:33.634Z,98714.47
2022-09-26T15:37:38.652Z,98704.97
2022-09-26T15:42:08.829Z,98707.94
2022-09-26T15:46:22.305Z,98694.97
2022-09-26T15:50:29.895Z,98698.81
2022-09-26T15:54:35.892Z,98694.47
2022-09-26T15:58:52.631Z,98696.38
2022-09-26T16:02:55.920Z,98698.47
2022-09-26T16:07:02.128Z,98687.09
2022-09-26T16:11:08.381Z,98680.25
2022-09-26T16:15:17.787Z,98679.81
2022-09-26T16:19:30.741Z,98690.75
2022-09-26T16:23:47.021Z,98687.13
2022-09-26T16:27:53.573Z,98686.34
2022-09-26T16:31:57.115Z,98684.78
2022-09-26T16:36:17.992Z,98685.81
2022-09-26T16:40:21.377Z,98687.56
2022-09-26T16:44:34.517Z,98679.66
2022-09-26T16:48:41.454Z,98681.66
2022-09-26T16:52:45.937Z,98684.38
2022-09-26T16:56:51.619Z,98682.81
2022-09-26T17:01:13.702Z,98678.72
2022-09-26T17:05:19.850Z,98686.97
2022-09-26T17:09:28.155Z,98686.91
2022-09-26T17:13:35.418Z,98690.41
2022-09-26T17:17:39.926Z,98697.56
2022-09-26T17:21:44.186Z,98689.56
2022-09-26T17:25:53.006Z,98694.97
2022-09-26T17:30:01.943Z,98696.19
2022-09-26T17:34:06.563Z,98698.91
2022-09-26T17:38:17.870Z,98694.59
2022-09-26T17:42:21.361Z,98694.59
2022-09-26T17:46:24.510Z,98699.94
2022-09-26T17:50:32.148Z,98695.53
2022-09-26T17:54:42.562Z,98691.28
2022-09-26T17:58:47.058Z,98684.34
2022-09-26T18:02:54.355Z,98680.03
2022-09-26T18:07:04.437Z,98677.44
2022-09-26T18:11:14.585Z,98674.84
2022-09-26T18:15:22.224Z,98673.09
2022-09-26T18:19:25.766Z,98674.00
2022-09-26T18:23:41.102Z,98667.78
2022-09-26T18:27:44.621Z,98676.78
2022-09-26T18:31:48.061Z,98676.97
2022-09-26T18:35:51.314Z,98677.25
2022-09-26T18:39:58.974Z,98683.97
2022-09-26T18:44:05.558Z,98675.44
2022-09-26T18:48:13.195Z,98683.59
2022-09-26T18:52:18.381Z,98683.59
2022-09-26T18:56:40.277Z,98689.00
2022-09-26T19:00:43.908Z,98679.41
2022-09-26T19:04:47.385Z,98676.69
2022-09-26T19:08:52.861Z,98685.69
2022-09-26T19:12:59.069Z,98680.50
2022-09-26T19:17:03.011Z,98691.31
2022-09-26T19:21:14.916Z,98695.16
2022-09-26T19:25:18.415Z,98683.13
2022-09-26T19:29:29.649Z,98682.31
2022-09-26T19:33:32.866Z,98687.66
2022-09-26T19:37:35.962Z,98692.22
2022-09-26T19:41:39.243Z,98699.31
2022-09-26T19:45:43.864Z,98686.03
2022-09-26T19:49:48.439Z,98690.53
2022-09-26T19:53:51.889Z,98686.19
2022-09-26T19:57:57.459Z,98677.41
2022-09-26T20:02:02.111Z,98679.38
2022-09-26T20:06:13.583Z,98670.72
2022-09-26T20:10:19.138Z,98685.06
2022-09-26T20:14:25.040Z,98672.16
2022-09-26T20:18:29.563Z,98665.59
2022-09-26T20:22:32.882Z,98665.16
2022-09-26T20:26:36.090Z,98660.06
2022-09-26T20:30:55.420Z,98657.44
2022-09-26T20:35:00.540Z,98653.13
2022-09-26T20:39:06.279Z,98649.69
2022-09-26T20:43:14.820Z,98639.16
2022-09-26T20:47:21.244Z,98639.28
2022-09-26T20:51:29.150Z,98641.19
2022-09-26T20:55:33.365Z,98626.25
2022-09-26T20:59:36.503Z,98623.72
2022-09-26T21:07:50.253Z,98630.00
2022-09-26T21:11:53.637Z,98621.19
2022-09-26T21:15:57.113Z,98614.94
2022-09-26T21:20:00.677Z,98617.59
2022-09-26T21:24:40.556Z,98611.47
2022-09-26T21:28:43.660Z,98605.34
2022-09-26T21:32:51.612Z,98600.09
2022-09-26T21:36:59.515Z,98597.50
2022-09-26T21:41:05.020Z,98590.47
2022-09-26T21:45:11.140Z,98587.03
2022-09-26T21:49:14.279Z,98590.47
2022-09-26T21:53:21.527Z,98580.78
2022-09-26T21:57:30.039Z,98576.56
2022-09-26T22:01:33.201Z,98573.19
2022-09-26T22:05:36.423Z,98562.66
2022-09-26T22:09:39.704Z,98564.53
2022-09-26T22:13:44.779Z,98559.22
2022-09-26T22:17:48.567Z,98549.50
2022-09-26T22:21:52.277Z,98545.09
2022-09-26T22:25:55.714Z,98546.06
2022-09-26T22:30:00.331Z,98546.16
2022-09-26T22:34:03.813Z,98541.00
2022-09-26T22:38:07.282Z,98526.09
2022-09-26T22:42:11.811Z,98527.28
2022-09-26T22:46:17.113Z,98518.44
2022-09-26T22:50:20.545Z,98519.31
2022-09-26T22:54:23.684Z,98509.53
2022-09-26T22:58:27.681Z,98510.53
2022-09-26T23:02:32.515Z,98504.56
2022-09-26T23:06:35.663Z,98499.41
2022-09-26T23:10:39.103Z,98488.16
2022-09-26T23:14:42.204Z,98487.47
2022-09-26T23:18:46.763Z,98480.63
2022-09-26T23:22:49.882Z,98466.69
2022-09-26T23:26:53.128Z,98467.69
2022-09-26T23:30:56.611Z,98458.91
2022-09-26T23:35:01.247Z,98452.84
2022-09-26T23:39:04.641Z,98443.19
2022-09-26T23:43:08.197Z,98436.16
2022-09-26T23:47:11.593Z,98429.25
2022-09-26T23:51:16.107Z,98427.53
2022-09-26T23:55:19.500Z,98424.94
2022-09-26T23:59:22.599Z,98429.25
